Terminal Aerodrome Forecast
Issued by NWS

Home | Current Version | Previous Version | Text Only | Print | Product List | Glossary On
Versions: 1 2 3 4 5 6 7 8 9 10 11 12 13 14 15 16 17 18 19 20 21 22 23 24 25 26 27 28
000
FTUS41 KBOX 210538
TAFACK
TAF
KACK 210538Z 2106/2206 21008KT P6SM FEW045 OVC060
     FM211000 16009KT P6SM OVC050
     FM211100 15010KT P6SM -SHRA OVC050
     FM211500 15011G19KT 3SM -SHRA BR OVC030
     FM211800 16011G20KT 6SM -SHRA OVC015
     FM212000 14009KT P6SM OVC015
     FM220000 11005KT 5SM BR BKN035
     FM220400 04004KT 5SM BR BKN050=

USA.gov is the U.S. government's official web portal to all federal, state and local government web resources and services.